Cleveland, Ohio
Traffic Map
Current Weather Conditions
Cleveland, Ohio
Overcast Moderate Rain
Overcast
47°
Feels Like: 41°
Wind Chill: 41° Ceiling: 1000
Heat Index: 47° Visibility: 2.5mi
Dew Point: 45° Wind: 15mph
Humidity: 93% Direction: 360° (N)
Pressure: 29.94in Gusts: 0mph
Raw Report DataKBKL 020822Z AUTO 36013KT 2 1/2SM RA BR SCT004 BKN010 OVC013 08/07 A2994 RMK AO2 VIS 1 3/4V3 P0013 T00830072 TSNO
Traffic Incident Summary
Active as of:
Severity:
Category:
InformationThere was an issue retrieving the traffic information for this location. Please try a different location or try again shortly.
Advertisements
Track Severe Weather on mobile